Time;durP1;ratioP1;P1;durP2;ratioP2;P2;SDS_P1;SDS_P2;PMS_P1;PMS_P2;Temp;Humidity;BMP_temperature;BMP_pressure;BME280_temperature;BME280_humidity;BME280_pressure;Samples;Min_cycle;Max_cycle;Signal;HPM_P1;HPM_P2
2022/05/15 00:00:43;;;;;;;7.88;3.50;;;;;;;13.26;85.52;100659.91;21026113;28;20052;-75
2022/05/15 00:10:44;;;;;;;8.93;3.88;;;;;;;13.12;85.95;100654.06;21023172;28;20132;-75
2022/05/15 00:20:47;;;;;;;7.57;4.30;;;;;;;13.04;86.76;100647.22;21026182;28;20097;-75
2022/05/15 00:30:48;;;;;;;7.93;4.00;;;;;;;12.82;88.67;100648.56;21025051;28;20043;-75
2022/05/15 00:40:51;;;;;;;12.07;5.05;;;;;;;12.72;89.02;100647.91;21024384;28;20052;-75
2022/05/15 00:50:53;;;;;;;12.23;4.53;;;;;;;12.83;87.27;100629.28;21024593;28;20048;-75
2022/05/15 01:00:56;;;;;;;9.50;4.03;;;;;;;12.99;85.67;100637.72;21023198;28;20515;-75
2022/05/15 01:11:04;;;;;;;10.30;4.57;;;;;;;13.27;83.41;100627.44;21022470;28;20045;-74
2022/05/15 01:21:24;;;;;;;8.27;3.72;;;;;;;13.27;81.47;100632.72;21028290;28;20075;-75
2022/05/15 01:31:27;;;;;;;8.73;3.35;;;;;;;13.30;80.32;100643.16;21036649;28;20048;-76
2022/05/15 01:41:28;;;;;;;8.45;3.33;;;;;;;13.29;79.07;100637.03;21036769;28;20071;-73
2022/05/15 01:51:30;;;;;;;8.55;3.40;;;;;;;13.23;78.51;100641.59;21035939;28;20463;-73
2022/05/15 02:01:32;;;;;;;10.38;4.40;;;;;;;13.19;78.01;100643.38;21034431;28;20048;-73
2022/05/15 02:11:34;;;;;;;11.57;3.78;;;;;;;13.21;77.31;100632.81;21033939;28;20048;-73
2022/05/15 02:21:35;;;;;;;8.32;4.30;;;;;;;13.18;77.45;100638.16;21034703;28;20059;-73
2022/05/15 02:31:38;;;;;;;10.88;3.85;;;;;;;12.95;78.79;100636.91;21032490;28;20066;-72
2022/05/15 02:41:39;;;;;;;13.32;4.32;;;;;;;12.97;78.66;100635.09;21028795;28;20566;-73
2022/05/15 02:51:41;;;;;;;10.02;4.18;;;;;;;12.85;80.22;100632.75;21031816;28;20043;-73
2022/05/15 03:01:42;;;;;;;13.00;4.40;;;;;;;12.63;81.99;100618.31;21029374;28;20052;-73
2022/05/15 03:11:44;;;;;;;13.45;4.90;;;;;;;12.57;82.45;100633.31;21028640;28;20045;-73
2022/05/15 03:21:45;;;;;;;10.00;4.50;;;;;;;12.43;83.61;100639.75;21028300;28;20078;-72
2022/05/15 03:31:47;;;;;;;12.55;4.75;;;;;;;12.28;84.51;100636.50;21028086;28;20094;-72
2022/05/15 03:41:50;;;;;;;12.30;4.82;;;;;;;12.17;85.79;100645.47;21028537;28;20063;-72
2022/05/15 03:51:51;;;;;;;15.23;5.78;;;;;;;12.04;86.52;100650.94;21028051;28;20501;-72
2022/05/15 04:01:53;;;;;;;11.48;5.45;;;;;;;12.18;85.81;100652.47;21026118;28;20056;-72
2022/05/15 04:11:55;;;;;;;11.65;4.82;;;;;;;12.32;85.83;100640.81;21040602;22;20052;-69
2022/05/15 04:22:02;;;;;;;15.73;5.78;;;;;;;12.31;86.51;100635.56;21026211;28;20106;-68
2022/05/15 04:32:04;;;;;;;11.18;5.55;;;;;;;12.53;86.40;100639.53;21024767;28;20044;-68
2022/05/15 04:42:07;;;;;;;12.60;6.45;;;;;;;12.94;84.67;100629.94;21023247;28;20056;-68
2022/05/15 04:52:09;;;;;;;14.68;7.10;;;;;;;13.01;84.62;100644.66;21022937;28;20051;-68
2022/05/15 05:02:11;;;;;;;13.88;7.10;;;;;;;13.09;85.41;100642.72;21036579;28;20061;-70
2022/05/15 05:12:12;;;;;;;15.55;7.20;;;;;;;13.30;84.92;100653.69;21038079;28;20048;-68
2022/05/15 05:22:14;;;;;;;14.75;6.60;;;;;;;13.42;85.65;100652.56;21038241;28;20557;-69
2022/05/15 05:32:15;;;;;;;13.10;7.20;;;;;;;13.59;85.32;100658.25;21037576;28;20081;-68
2022/05/15 05:42:17;;;;;;;12.70;6.93;;;;;;;14.02;84.10;100652.78;21036505;28;20397;-68
2022/05/15 05:52:18;;;;;;;13.25;5.40;;;;;;;14.63;80.50;100661.72;21035320;28;20056;-69
2022/05/15 06:02:20;;;;;;;9.27;4.20;;;;;;;14.83;78.42;100653.22;21032590;28;20052;-68
2022/05/15 06:12:24;;;;;;;8.57;3.70;;;;;;;15.06;74.87;100655.19;21030928;28;20041;-69
2022/05/15 06:22:25;;;;;;;8.13;3.80;;;;;;;15.37;74.10;100649.81;21032196;28;20054;-68
2022/05/15 06:32:27;;;;;;;9.30;3.80;;;;;;;15.77;71.78;100653.88;21031312;28;20052;-68
2022/05/15 06:42:29;;;;;;;8.90;3.75;;;;;;;15.95;71.50;100649.72;21026800;28;20052;-69
2022/05/15 06:52:31;;;;;;;6.50;3.13;;;;;;;16.20;72.23;100641.84;21029810;28;20485;-69
2022/05/15 07:02:33;;;;;;;7.07;3.00;;;;;;;16.35;72.45;100640.44;21011983;28;20471;-68
2022/05/15 07:12:34;;;;;;;8.40;2.72;;;;;;;16.62;72.22;100630.63;21003825;28;20101;-69
2022/05/15 07:22:36;;;;;;;7.03;3.10;;;;;;;17.13;69.25;100635.75;21011731;28;20059;-69
2022/05/15 07:32:37;;;;;;;9.10;3.45;;;;;;;17.60;67.69;100630.34;21019104;28;20052;-69
2022/05/15 07:42:41;;;;;;;8.85;3.03;;;;;;;17.85;65.78;100630.22;21016828;28;20672;-68
2022/05/15 07:52:43;;;;;;;5.57;2.80;;;;;;;18.22;65.02;100617.19;21017020;28;20542;-69
2022/05/15 08:02:45;;;;;;;8.45;2.80;;;;;;;18.72;62.78;100614.94;21016926;28;20134;-69
2022/05/15 08:12:46;;;;;;;6.88;2.70;;;;;;;19.12;61.45;100608.63;21010853;28;20082;-69
2022/05/15 08:33:10;;;;;;;5.82;2.60;;;;;;;20.07;58.57;100595.94;21023238;28;20407;-69
2022/05/15 08:43:12;;;;;;;6.13;2.30;;;;;;;20.45;56.93;100585.09;21028845;28;20094;-69
2022/05/15 08:53:31;;;;;;;7.30;2.40;;;;;;;20.96;55.11;100581.41;21031978;28;20489;-69
2022/05/15 09:03:37;;;;;;;5.60;2.30;;;;;;;21.47;55.80;100587.41;21027142;28;20040;-69
2022/05/15 09:13:42;;;;;;;7.40;2.20;;;;;;;21.70;48.81;100574.53;21025617;28;20457;-69
2022/05/15 09:23:50;;;;;;;8.10;1.90;;;;;;;22.13;49.51;100567.50;21026696;28;20130;-70
2022/05/15 09:34:25;;;;;;;7.45;1.88;;;;;;;22.50;47.56;100558.09;21024675;28;20044;-69
2022/05/15 09:44:33;;;;;;;7.22;1.52;;;;;;;23.12;44.21;100557.72;20973702;28;20121;-70
2022/05/15 09:54:34;;;;;;;7.18;1.98;;;;;;;23.34;42.87;100559.84;21023259;28;20546;-69
2022/05/15 10:04:40;;;;;;;6.13;2.17;;;;;;;23.68;41.91;100553.13;21024120;28;20059;-70
2022/05/15 10:14:54;;;;;;;4.72;1.70;;;;;;;23.99;40.44;100540.31;21008723;22;20113;-73
2022/05/15 10:25:12;;;;;;;7.30;2.00;;;;;;;24.29;41.07;100515.88;20949604;28;20105;-71
2022/05/15 10:35:16;;;;;;;7.53;1.70;;;;;;;24.46;38.42;100485.28;20939973;28;20048;-75
2022/05/15 10:45:18;;;;;;;;;;;;;;;24.70;36.93;100483.50;20939008;28;20048;-74
2022/05/15 11:06:39;;;;;;;6.43;2.00;;;;;;;24.98;37.27;100460.03;20938746;28;20417;-72
2022/05/15 11:17:11;;;;;;;5.60;1.52;;;;;;;25.04;36.08;100444.34;20937054;28;20048;-71
2022/05/15 11:27:25;;;;;;;5.72;2.00;;;;;;;25.23;35.61;100449.19;20934584;28;20048;-74
2022/05/15 11:37:36;;;;;;;4.53;1.60;;;;;;;25.27;36.53;100437.28;20934352;28;20052;-72
2022/05/15 11:47:39;;;;;;;5.00;2.13;;;;;;;25.27;36.13;100414.97;20936839;28;20056;-72
2022/05/15 11:57:45;;;;;;;4.32;1.75;;;;;;;25.57;37.31;100419.78;20936600;28;20455;-73
2022/05/15 12:08:07;;;;;;;5.47;1.73;;;;;;;25.72;35.24;100407.84;20930704;28;20529;-72
2022/05/15 12:18:18;;;;;;;6.32;2.05;;;;;;;25.80;35.56;100400.09;20934000;28;20055;-72
2022/05/15 12:28:53;;;;;;;5.18;1.70;;;;;;;25.81;34.40;100388.38;20935264;28;20052;-73
2022/05/15 12:38:55;;;;;;;7.10;1.77;;;;;;;25.95;33.77;100376.53;20932883;28;20100;-72
2022/05/15 12:48:57;;;;;;;6.93;1.85;;;;;;;26.05;34.80;100373.97;20933854;28;20048;-73
2022/05/15 12:59:08;;;;;;;3.90;1.67;;;;;;;26.28;35.08;100364.06;20933910;28;20052;-73
2022/05/15 13:09:18;;;;;;;4.75;1.80;;;;;;;26.17;35.40;100353.34;20932944;28;20059;-73
2022/05/15 13:19:27;;;;;;;3.33;1.63;;;;;;;26.14;35.77;100337.50;20940753;28;20072;-73
2022/05/15 13:29:32;;;;;;;5.97;2.10;;;;;;;26.42;35.38;100330.72;20947190;28;20091;-73
2022/05/15 13:49:56;;;;;;;2.92;1.50;;;;;;;26.37;36.46;100312.28;20944894;28;20052;-73
2022/05/15 14:00:09;;;;;;;6.00;2.28;;;;;;;26.83;34.93;100297.72;20942697;28;20416;-73
2022/05/15 14:10:14;;;;;;;6.93;2.47;;;;;;;27.03;33.60;100278.03;20944404;28;20037;-73
2022/05/15 14:20:28;;;;;;;4.32;1.50;;;;;;;26.82;35.11;100261.91;20942848;28;20061;-73
2022/05/15 14:30:30;;;;;;;4.40;2.00;;;;;;;27.11;33.33;100250.50;20936809;28;20614;-73
2022/05/15 14:40:32;;;;;;;6.00;1.60;;;;;;;26.96;32.98;100257.19;20941022;28;20051;-73
2022/05/15 14:50:33;;;;;;;5.30;2.10;;;;;;;27.01;31.81;100246.91;20940420;28;20107;-73
2022/05/15 15:00:35;;;;;;;4.63;1.80;;;;;;;27.00;32.74;100239.81;20938890;28;20049;-73
2022/05/15 15:10:37;;;;;;;6.25;1.70;;;;;;;27.13;32.45;100224.38;20940725;28;20174;-73
2022/05/15 15:20:40;;;;;;;3.33;1.50;;;;;;;27.11;31.31;100223.63;20939773;28;20056;-73
2022/05/15 15:30:42;;;;;;;6.80;2.22;;;;;;;27.23;31.65;100213.66;20938555;28;20416;-73
2022/05/15 15:40:49;;;;;;;7.32;1.80;;;;;;;27.39;31.91;100191.63;20939246;28;20051;-73
2022/05/15 15:50:51;;;;;;;5.70;1.90;;;;;;;27.21;32.12;100186.91;20938043;28;20417;-74
2022/05/15 16:00:53;;;;;;;5.03;2.03;;;;;;;27.49;32.07;100179.91;20935491;28;20045;-73
2022/05/15 16:10:56;;;;;;;7.13;3.40;;;;;;;27.28;31.83;100168.41;21047784;23;20056;-70
2022/05/15 16:21:04;;;;;;;7.13;2.33;;;;;;;27.36;31.60;100161.34;20956085;28;20417;-71
2022/05/15 16:31:07;;;;;;;5.53;1.90;;;;;;;27.16;32.59;100154.19;20934291;28;20092;-69
2022/05/15 16:41:09;;;;;;;5.05;1.90;;;;;;;26.89;31.95;100145.88;20934032;28;20052;-67
2022/05/15 16:51:11;;;;;;;6.05;1.55;;;;;;;26.75;33.39;100134.50;20938247;28;20041;-67
2022/05/15 17:01:13;;;;;;;5.80;1.85;;;;;;;26.96;32.39;100141.66;20948169;28;20106;-67
2022/05/15 17:11:14;;;;;;;5.72;1.70;;;;;;;26.91;32.18;100130.47;20945120;28;20045;-67
2022/05/15 17:21:16;;;;;;;6.43;2.08;;;;;;;26.98;31.88;100134.31;20945730;28;20502;-67
2022/05/15 17:41:39;;;;;;;6.80;1.90;;;;;;;26.65;32.82;100128.25;20944725;28;20045;-67
2022/05/15 17:51:40;;;;;;;8.25;2.20;;;;;;;26.26;34.25;100113.72;20944187;28;20437;-67
2022/05/15 18:01:42;;;;;;;3.40;1.50;;;;;;;25.62;35.31;100125.31;20943583;28;20509;-67
2022/05/15 18:11:44;;;;;;;6.07;2.00;;;;;;;25.21;36.28;100124.22;20943756;28;20051;-67
2022/05/15 18:21:46;;;;;;;4.35;1.42;;;;;;;24.81;36.40;100122.00;20942107;28;20060;-67
2022/05/15 18:31:47;;;;;;;7.68;2.00;;;;;;;24.42;37.66;100125.16;20938556;28;20102;-69
2022/05/15 18:41:59;;;;;;;5.45;1.60;;;;;;;24.11;38.70;100126.66;20941377;28;20068;-68
2022/05/15 19:02:25;;;;;;;5.70;1.88;;;;;;;23.47;40.02;100143.81;20936516;28;20044;-69
2022/05/15 19:12:26;;;;;;;6.85;2.03;;;;;;;23.12;40.77;100149.06;20934255;28;20564;-69
2022/05/15 19:22:28;;;;;;;4.45;1.60;;;;;;;22.90;41.57;100164.91;20938375;28;20462;-69
2022/05/15 19:32:29;;;;;;;6.15;1.70;;;;;;;22.40;46.66;100185.25;20936523;28;20048;-69
2022/05/15 19:42:31;;;;;;;4.35;1.60;;;;;;;21.86;49.63;100187.97;20936696;28;20060;-67
2022/05/15 19:52:33;;;;;;;4.13;1.80;;;;;;;21.31;51.62;100207.53;20935601;28;20127;-69
2022/05/15 20:02:35;;;;;;;4.05;1.75;;;;;;;21.22;50.70;100209.81;20933522;28;20094;-68
2022/05/15 20:12:36;;;;;;;4.18;1.58;;;;;;;21.21;49.62;100210.72;20932512;28;20044;-69
2022/05/15 20:22:38;;;;;;;7.80;1.80;;;;;;;21.16;49.23;100217.28;20934885;28;20059;-69
2022/05/15 20:32:41;;;;;;;6.65;1.90;;;;;;;21.10;48.67;100215.88;20948800;28;20068;-69
2022/05/15 20:42:43;;;;;;;8.23;2.45;;;;;;;20.98;48.05;100224.59;20949758;28;20056;-68
2022/05/15 20:52:49;;;;;;;4.78;1.73;;;;;;;20.81;48.25;100214.16;20949645;28;20110;-69
2022/05/15 21:02:50;;;;;;;6.57;1.80;;;;;;;20.68;48.45;100230.84;20946688;28;20045;-69
2022/05/15 21:12:52;;;;;;;5.75;1.92;;;;;;;20.57;49.09;100233.31;20946770;28;20045;-69
2022/05/15 21:22:53;;;;;;;5.90;2.00;;;;;;;20.31;50.40;100232.16;20947028;28;20126;-69
2022/05/15 21:32:55;;;;;;;5.00;1.70;;;;;;;20.09;51.79;100248.50;20946272;28;20050;-68
2022/05/15 21:53:04;;;;;;;5.60;1.60;;;;;;;19.52;56.57;100257.94;20946851;28;20536;-69
2022/05/15 22:03:05;;;;;;;5.15;2.03;;;;;;;19.09;60.28;100250.50;20945129;28;20040;-68
2022/05/15 22:13:07;;;;;;;6.78;2.10;;;;;;;18.75;62.87;100258.50;20903454;22;20452;-74
2022/05/15 22:23:08;;;;;;;5.00;2.00;;;;;;;18.58;62.11;100256.69;20794541;28;20057;-74
2022/05/15 22:33:11;;;;;;;6.03;2.17;;;;;;;18.47;62.82;100262.53;20785377;28;20486;-72
2022/05/15 22:43:13;;;;;;;6.00;1.95;;;;;;;18.24;65.04;100257.53;20784318;28;20061;-72
2022/05/15 22:53:14;;;;;;;9.95;2.50;;;;;;;18.12;65.45;100259.00;20782234;28;20045;-72
2022/05/15 23:03:16;;;;;;;5.93;2.47;;;;;;;17.86;67.43;100254.94;20782917;28;20046;-73
2022/05/15 23:13:18;;;;;;;6.78;2.28;;;;;;;17.69;67.52;100253.94;20784306;28;20123;-72
2022/05/15 23:23:19;;;;;;;6.53;2.80;;;;;;;17.72;67.27;100241.47;20782964;28;20045;-73
2022/05/15 23:33:21;;;;;;;7.55;2.55;;;;;;;17.48;68.35;100244.34;20782080;28;20047;-72
2022/05/15 23:43:26;;;;;;;6.95;2.30;;;;;;;17.38;69.85;100233.31;20781109;28;20057;-73
2022/05/15 23:53:32;;;;;;;6.70;2.45;;;;;;;17.31;71.54;100242.50;20776794;28;20049;-73
